Terminal Aerodrome Forecast
Issued by NWS Jackson, KY

Home | Current Version | Previous Version | Text Only | Print | Product List | Glossary On
Versions: 1 2 3 4 5 6 7 8 9 10 11 12 13 14 15 16 17 18
000
FTUS43 KJKL 042339
TAFLOZ
TAF
KLOZ 042339Z 0500/0524 25008KT P6SM SCT030 BKN150
     FM050700 VRB03KT 6SM -RA BR OVC040
     FM050900 VRB03KT 4SM -SHRA BR OVC025
     FM051100 VRB03KT 4SM -SHRA BR OVC013
     FM051700 VRB03KT P6SM -SHRA OVC020=

USA.gov is the U.S. government's official web portal to all federal, state and local government web resources and services.